WetterOnline ( https://www.wetteronline.de )

Wetter aktuell Ludwigshafen

Aktuelles Wetter: Mannheim (100m)

6-stündlich | Neueste Meldungen
Ortszeit Temperatur Wetter
So, 26.05. 14:00 23.0° C wolkig
So, 26.05. 8:00 16.1° C wolkenlos
So, 26.05. 2:00 11.3° C wolkenlos
Sa, 25.05. 20:00 21.6° C wolkenlos
Sa, 25.05. 14:00 20.5° C leicht bewölkt
Sa, 25.05. 8:00 13.7° C bewölkt
Sa, 25.05. 2:00 12.7° C wolkig
Fr, 24.05. 20:00 19.0° C wolkig
Ortszeit Temperatur Wetter
So, 26.05. 14:00 23.0° C wolkig
So, 26.05. 13:50 23.0° C wolkig
So, 26.05. 13:40 23.3° C bedeckt
So, 26.05. 13:30 22.4° C bedeckt
So, 26.05. 13:20 22.4° C bedeckt
So, 26.05. 13:10 23.1° C bedeckt
So, 26.05. 13:00 22.1° C bedeckt
So, 26.05. 12:30 22.2° C bedeckt
So, 26.05. 12:00 21.8° C wolkig
So, 26.05. 11:30 21.1° C bedeckt
So, 26.05. 11:00 20.5° C wolkig
Ortszeit Relative Feuchte Sichtweite
So, 26.05. 14:00 48% 60 km
So, 26.05. 8:00 76% 40 km
So, 26.05. 2:00 92% 40 km
Sa, 25.05. 20:00 46% 65 km
Sa, 25.05. 14:00 48% 60 km
Sa, 25.05. 8:00 89% 45 km
Sa, 25.05. 2:00 94% 40 km
Fr, 24.05. 20:00 64% 65 km
Ortszeit Relative Feuchte Sichtweite
So, 26.05. 14:00 48% 60 km
So, 26.05. 13:50 48% -
So, 26.05. 13:40 49% -
So, 26.05. 13:30 51% 45 km
So, 26.05. 13:20 51% -
So, 26.05. 13:10 54% -
So, 26.05. 13:00 52% >70 km
So, 26.05. 12:30 55% >70 km
So, 26.05. 12:00 60% 55 km
So, 26.05. 11:30 60% 60 km
So, 26.05. 11:00 61% 60 km
Ortszeit Niederschlagsmenge Niederschlagsart
So, 26.05. 14:00 0.0 l/m2 in 6 Std. -
So, 26.05. 8:00 0.0 l/m2 in 12 Std. -
So, 26.05. 2:00 0.0 l/m2 in 6 Std. -
Sa, 25.05. 20:00 0.0 l/m2 in 12 Std. -
Sa, 25.05. 14:00 0.0 l/m2 in 6 Std. -
Sa, 25.05. 8:00 0.0 l/m2 in 12 Std. -
Sa, 25.05. 2:00 0.0 l/m2 in 6 Std. -
Fr, 24.05. 20:00 2 l/m2 in 12 Std. -
Ortszeit Niederschlagsmenge Niederschlagsart
So, 26.05. 14:00 0.0 l/m2 in 1 Std. -
So, 26.05. 13:50 keine Meldung -
So, 26.05. 13:40 keine Meldung -
So, 26.05. 13:30 0.0 l/m2 in 30 Min -
So, 26.05. 13:20 keine Meldung -
So, 26.05. 13:10 keine Meldung -
So, 26.05. 13:00 0.0 l/m2 in 1 Std. -
So, 26.05. 12:30 0.0 l/m2 in 30 Min -
So, 26.05. 12:00 0.0 l/m2 in 1 Std. -
So, 26.05. 11:30 0.0 l/m2 in 30 Min -
So, 26.05. 11:00 0.0 l/m2 in 1 Std. -
Ortszeit Stärke Spitze Richtung
km/h Bft. km/h Grad Sektor
So, 26.05. 14:00 13 3 24 150° SO
So, 26.05. 8:00 0 0 7 - -
So, 26.05. 2:00 4 1 18 180° S
Sa, 25.05. 20:00 11 2 22 320° NW
Sa, 25.05. 14:00 9 2 22 160° S
Sa, 25.05. 8:00 11 2 18 150° SO
Sa, 25.05. 2:00 7 2 14 150° SO
Fr, 24.05. 20:00 2 1 28 240° SW
Ortszeit Stärke Spitze Richtung
km/h Bft. km/h Grad Sektor
So, 26.05. 14:00 13 3 22 150° SO
So, 26.05. 13:50 13 3 - 150° SO
So, 26.05. 13:40 11 2 - 130° SO
So, 26.05. 13:30 13 3 22 150° SO
So, 26.05. 13:20 13 3 - 150° SO
So, 26.05. 13:10 11 2 - 130° SO
So, 26.05. 13:00 13 3 24 140° SO
So, 26.05. 12:30 9 2 20 160° S
So, 26.05. 12:00 13 3 22 160° S
So, 26.05. 11:30 11 2 22 160° S
So, 26.05. 11:00 11 2 20 150° SO
Ortszeit Untergrenze Bedeckung Gattung
total tief tief mittel hoch
So, 26.05. 14:00 1800 m 8/8 2/8 - - -
So, 26.05. 8:00 - 0/8 0/8 - - -
So, 26.05. 2:00 - 0/8 0/8 - - -
Sa, 25.05. 20:00 - 0/8 0/8 - - -
Sa, 25.05. 14:00 6900 m 5/8 1/8 - - -
Sa, 25.05. 8:00 2400 m 7/8 7/8 - - -
Sa, 25.05. 2:00 1110 m 6/8 6/8 - - -
Fr, 24.05. 20:00 4800 m 8/8 8/8 - - -
Ortszeit Bedeckungsgrad in Achtel und Wolkenuntergrenze
So, 26.05. 14:00 2(1800m) 7(4500m) 8(5700m)
So, 26.05. 13:50 2(1800m) 7(4500m) 8(5700m)
So, 26.05. 13:40 8
So, 26.05. 13:30 1(3900m) 6(4800m) 8(5700m)
So, 26.05. 13:20 1(3900m) 6(4800m) 8(5700m)
So, 26.05. 13:10 8
So, 26.05. 13:00 5(4200m) 8(4500m)
So, 26.05. 12:30 8(4800m)
So, 26.05. 12:00 8(4800m)
So, 26.05. 11:30 8(5100m)
So, 26.05. 11:00 8(5400m)
Ortszeit Luftdruck NN (hPa) Tendenz (hPa in 3 Std.)
So, 26.05. 14:00 1017 - 0,9
So, 26.05. 8:00 1018 + 0,2
So, 26.05. 2:00 1018 - 0,1
Sa, 25.05. 20:00 1017 + 0,1
Sa, 25.05. 14:00 1017 - 0,7
Sa, 25.05. 8:00 1018 + 0,4
Sa, 25.05. 2:00 1018 0,0
Fr, 24.05. 20:00 1017 0,0
Ortszeit Luftdruck NN (hPa) Tendenz (hPa in 3 Std.)
So, 26.05. 14:00 1017 - 0,9
So, 26.05. 13:50 1017 keine Meldung
So, 26.05. 13:40 1017 keine Meldung
So, 26.05. 13:30 1017 - 0,6
So, 26.05. 13:20 1017 keine Meldung
So, 26.05. 13:10 1017 keine Meldung
So, 26.05. 13:00 1017 - 0,6
So, 26.05. 12:30 1017 - 0,9
So, 26.05. 12:00 1017 - 0,7
So, 26.05. 11:30 1017 - 0,4
So, 26.05. 11:00 1018 0,0
Ortszeit Schneehöhe (cm)
So, 26.05. 14:00 0
So, 26.05. 8:00 0
So, 26.05. 2:00 0
Sa, 25.05. 20:00 0
Sa, 25.05. 14:00 0
Sa, 25.05. 8:00 0
Sa, 25.05. 2:00 0
Fr, 24.05. 20:00 0
Ortszeit Schneehöhe (cm)
So, 26.05. 14:00 0
So, 26.05. 13:50 0
So, 26.05. 13:40 -
So, 26.05. 13:30 0
So, 26.05. 13:20 0
So, 26.05. 13:10 -
So, 26.05. 13:00 0
So, 26.05. 12:30 0
So, 26.05. 12:00 0
So, 26.05. 11:30 0
So, 26.05. 11:00 0
Link zu dieser Seite / Seite empfehlen

Das Wetter in ...